Messwerte Filisur

Temperatur

Temperatur
°C
1586343600 13.00 13.00 17.6
1586347200 14.00 14.00 18.5
1586350800 15.00 15.00 19.1
1586354400 16.00 16.00 19.2
1586358000 17.00 17.00 19.1
1586361600 18.00 18.00 18.8
1586365200 19.00 19.00 16.9
1586368800 20.00 20.00 13.5
1586372400 21.00 21.00 12.1
1586376000 22.00 22.00
1586379600 23.00 23.00
1586383200 0.00 0.00
1586386800 1.00 1.00
1586390400 2.00 2.00
1586394000 3.00 3.00
1586397600 4.00 4.00
1586401200 5.00 5.00
1586404800 6.00 6.00
1586408400 7.00 7.00
1586412000 8.00 8.00
1586415600 9.00 9.00
1586419200 10.00 10.00 8.8
1586422800 11.00 11.00 12.2
1586426400 12.00 12.00 14.8

Wir danken unserem Partner: Gemeinde Filisur

Aktuellste Messwerte

Temperatur
14.8 °C
Feuchtigkeit
51 %
Wind
1 km/hWindrichtung: Südwest
Böen
8 km/h
Niederschlag
0.0 mm
Luftdruck
1021.3 hPa
Globalstrahlung
525 W/m²
Messzeit: 9. April 2020, 12.00Datenquelle: MeteoNews Partner, Gemeinde Filisur

Weitere Messstationen in der Nähe

Messstation Temperatur Entfernung
Bergün 12.6 °C 6 km
Arosa 11.7 °C 12 km
Arosa-Maran 7.6 °C 13 km
Valbella 8.9 °C 14 km
Piz Martegnas 0.3 °C 16 km
Cazis 15.8 °C 21 km
Andeer 14.6 °C 21 km

Niederschlag

Niederschlagsmenge
mm
1586343600 13.00 12.00 - 13.00 0.0
1586347200 14.00 13.00 - 14.00 0.0
1586350800 15.00 14.00 - 15.00 0.0
1586354400 16.00 15.00 - 16.00 0.0
1586358000 17.00 16.00 - 17.00 0.0
1586361600 18.00 17.00 - 18.00 0.0
1586365200 19.00 18.00 - 19.00 0.0
1586368800 20.00 19.00 - 20.00 0.0
1586372400 21.00 20.00 - 21.00
1586376000 22.00 21.00 - 22.00
1586379600 23.00 22.00 - 23.00
1586383200 0.00 23.00 - 0.00
1586386800 1.00 0.00 - 1.00
1586390400 2.00 1.00 - 2.00
1586394000 3.00 2.00 - 3.00
1586397600 4.00 3.00 - 4.00
1586401200 5.00 4.00 - 5.00
1586404800 6.00 5.00 - 6.00
1586408400 7.00 6.00 - 7.00
1586412000 8.00 7.00 - 8.00
1586415600 9.00 8.00 - 9.00
1586419200 10.00 9.00 - 10.00 0.0
1586422800 11.00 10.00 - 11.00 0.0
1586426400 12.00 11.00 - 12.00 0.0

Wind

Windrichtung Böen Mittelwind
° km/h km/h
1586343600 13.00 12.00 - 13.00 250° 18 7
1586347200 14.00 13.00 - 14.00 260° 18 8
1586350800 15.00 14.00 - 15.00 240° 21 9
1586354400 16.00 15.00 - 16.00 260° 24 9
1586358000 17.00 16.00 - 17.00 270° 19 8
1586361600 18.00 17.00 - 18.00 230° 19 7
1586365200 19.00 18.00 - 19.00 150° 16 4
1586368800 20.00 19.00 - 20.00 250° 10 1
1586372400 21.00 20.00 - 21.00 30° 6 1
1586376000 22.00 21.00 - 22.00
1586379600 23.00 22.00 - 23.00
1586383200 0.00 23.00 - 0.00
1586386800 1.00 0.00 - 1.00
1586390400 2.00 1.00 - 2.00
1586394000 3.00 2.00 - 3.00
1586397600 4.00 3.00 - 4.00
1586401200 5.00 4.00 - 5.00
1586404800 6.00 5.00 - 6.00
1586408400 7.00 6.00 - 7.00
1586412000 8.00 7.00 - 8.00
1586415600 9.00 8.00 - 9.00
1586419200 10.00 9.00 - 10.00 240° 6 0
1586422800 11.00 10.00 - 11.00 250° 10 3
1586426400 12.00 11.00 - 12.00 240° 8 1

Ihre Wetterstation

Fehlt Ihre Wetterstation auf unserem Portal?

Schreiben Sie an network@meteonews.ch

Klima

Wann ist es am wärmsten? Wann regnet es am wenigsten? Unsere Klimadaten geben Auskunft.

Foto der Station

img